createdAt,value
2023-07-22T00:04:13.364Z,3.50
2023-07-22T00:09:16.120Z,3.07
2023-07-22T00:14:20.325Z,3.03
2023-07-22T00:19:24.525Z,3.17
2023-07-22T00:24:27.232Z,2.90
2023-07-22T00:29:31.278Z,2.20
2023-07-22T00:34:34.017Z,2.10
2023-07-22T00:39:36.790Z,2.20
2023-07-22T00:44:40.816Z,2.77
2023-07-22T00:49:43.557Z,2.10
2023-07-22T00:54:46.538Z,2.63
2023-07-22T00:59:51.020Z,2.90
2023-07-22T01:04:54.079Z,3.00
2023-07-22T01:09:59.311Z,3.35
2023-07-22T01:15:08.515Z,2.92
2023-07-22T01:20:12.308Z,2.90
2023-07-22T01:25:16.317Z,3.10
2023-07-22T01:30:20.362Z,3.00
2023-07-22T01:35:23.111Z,3.30
2023-07-22T01:40:29.569Z,3.28
2023-07-22T01:45:32.263Z,3.63
2023-07-22T01:50:34.939Z,3.27
2023-07-22T01:55:38.950Z,3.43
2023-07-22T02:00:41.619Z,3.78
2023-07-22T02:05:45.242Z,3.70
2023-07-22T02:10:49.972Z,3.37
2023-07-22T02:15:53.210Z,3.90
2023-07-22T02:20:56.253Z,3.60
2023-07-22T02:26:00.377Z,3.97
2023-07-22T02:31:06.164Z,4.38
2023-07-22T02:36:09.580Z,4.38
2023-07-22T02:41:13.650Z,4.80
2023-07-22T02:46:16.405Z,4.63
2023-07-22T02:51:19.106Z,4.90
2023-07-22T02:56:23.187Z,5.20
2023-07-22T03:01:26.961Z,5.23
2023-07-22T03:06:30.136Z,5.60
2023-07-22T03:11:34.178Z,5.70
2023-07-22T03:16:36.943Z,6.00
2023-07-22T03:21:39.640Z,6.30
2023-07-22T03:26:43.723Z,5.70
2023-07-22T03:31:46.499Z,5.97
2023-07-22T03:36:49.568Z,6.10
2023-07-22T03:41:53.607Z,6.75
2023-07-22T03:46:56.398Z,6.53
2023-07-22T03:51:59.118Z,7.23
2023-07-22T03:57:03.197Z,8.13
2023-07-22T04:02:06.479Z,8.02
2023-07-22T04:07:10.133Z,8.73
2023-07-22T04:12:14.179Z,8.65
2023-07-22T04:17:17.421Z,8.50
2023-07-22T04:22:20.673Z,8.27
2023-07-22T04:27:24.688Z,7.47
2023-07-22T04:32:27.392Z,7.90
2023-07-22T04:37:30.346Z,8.10
2023-07-22T04:42:34.480Z,8.03
2023-07-22T04:47:37.302Z,8.30
2023-07-22T04:52:40.060Z,7.82
2023-07-22T04:57:46.170Z,8.13
2023-07-22T05:02:49.422Z,8.30
2023-07-22T05:07:55.559Z,8.02
2023-07-22T05:13:00.831Z,8.63
2023-07-22T05:18:03.922Z,9.13
2023-07-22T05:23:06.685Z,8.05
2023-07-22T05:28:14.557Z,8.40
2023-07-22T05:33:18.435Z,8.40
2023-07-22T05:38:21.101Z,8.50
2023-07-22T05:43:25.640Z,7.80
2023-07-22T05:48:28.267Z,8.47
2023-07-22T05:53:39.159Z,8.38
2023-07-22T05:58:43.112Z,8.27
2023-07-22T06:03:45.879Z,7.03
2023-07-22T06:08:48.609Z,7.30
2023-07-22T06:13:52.670Z,7.07
2023-07-22T06:18:55.662Z,7.20
2023-07-22T06:23:58.271Z,7.90
2023-07-22T06:29:02.217Z,7.75
2023-07-22T06:34:05.192Z,6.65
2023-07-22T06:39:07.873Z,6.77
2023-07-22T06:44:11.915Z,6.05
2023-07-22T06:49:14.643Z,5.95
2023-07-22T06:54:17.512Z,5.53
2023-07-22T06:59:21.560Z,5.83
2023-07-22T07:04:24.285Z,5.72
2023-07-22T07:09:27.396Z,5.32
2023-07-22T07:14:31.429Z,4.97
2023-07-22T07:19:34.269Z,5.43
2023-07-22T07:24:36.982Z,4.90
2023-07-22T07:29:53.693Z,4.40
2023-07-22T07:34:57.101Z,4.43
2023-07-22T07:40:00.861Z,4.70
2023-07-22T07:45:05.763Z,3.80
2023-07-22T07:50:09.381Z,4.00
2023-07-22T07:55:12.483Z,3.85
2023-07-22T08:00:17.453Z,3.65
2023-07-22T08:05:20.248Z,3.20
2023-07-22T08:10:22.955Z,3.08
2023-07-22T08:15:28.362Z,2.85
2023-07-22T08:20:31.611Z,2.80
2023-07-22T08:25:34.291Z,2.60
2023-07-22T08:30:39.621Z,2.50
2023-07-22T08:35:42.889Z,2.57
2023-07-22T08:40:45.570Z,2.63
2023-07-22T08:45:51.508Z,2.45
2023-07-22T08:50:56.896Z,2.20
2023-07-22T08:55:59.739Z,1.70
2023-07-22T09:01:04.689Z,2.00
2023-07-22T09:06:07.572Z,1.80
2023-07-22T09:11:11.026Z,1.93
2023-07-22T09:16:15.869Z,1.80
2023-07-22T09:21:18.620Z,1.80
2023-07-22T09:26:21.903Z,1.73
2023-07-22T09:31:27.186Z,1.70
2023-07-22T09:36:30.123Z,1.45
2023-07-22T09:41:33.150Z,1.40
2023-07-22T09:46:37.607Z,1.40
2023-07-22T09:51:52.858Z,1.40
2023-07-22T09:57:06.526Z,1.20
2023-07-22T10:02:13.436Z,1.30
2023-07-22T10:07:17.097Z,1.60
2023-07-22T10:12:19.914Z,1.30
2023-07-22T10:17:24.165Z,1.20
2023-07-22T10:22:27.085Z,1.20
2023-07-22T10:27:31.348Z,1.20
2023-07-22T10:32:37.384Z,1.42
2023-07-22T10:37:42.626Z,1.20
2023-07-22T10:42:52.699Z,1.20
2023-07-22T10:48:08.567Z,1.20
2023-07-22T10:53:15.186Z,1.30
2023-07-22T10:58:17.909Z,1.70
2023-07-22T11:03:22.310Z,1.95
2023-07-22T11:08:38.779Z,1.60
2023-07-22T11:13:42.295Z,1.60
2023-07-22T11:18:46.440Z,1.60
2023-07-22T11:23:49.252Z,1.55
2023-07-22T11:28:54.093Z,1.60
2023-07-22T11:33:58.547Z,1.40
2023-07-22T11:39:05.055Z,1.63
2023-07-22T11:44:10.053Z,1.40
2023-07-22T11:49:14.304Z,1.67
2023-07-22T11:54:18.389Z,1.80
2023-07-22T11:59:34.904Z,1.70
2023-07-22T12:04:40.341Z,1.20
2023-07-22T12:09:43.078Z,1.17
2023-07-22T12:14:45.782Z,0.90
2023-07-22T12:19:57.834Z,0.90
2023-07-22T12:25:04.420Z,0.70
2023-07-22T12:30:09.799Z,0.90
2023-07-22T12:35:14.894Z,0.80
2023-07-22T12:40:17.883Z,0.80
2023-07-22T12:45:20.606Z,0.90
2023-07-22T12:50:24.798Z,0.90
2023-07-22T12:55:27.823Z,1.00
2023-07-22T13:00:30.591Z,0.90
2023-07-22T13:05:34.659Z,0.90
2023-07-22T13:10:39.791Z,1.00
2023-07-22T13:15:42.515Z,0.80
2023-07-22T13:20:46.679Z,0.70
2023-07-22T13:25:49.591Z,0.90
2023-07-22T13:30:52.357Z,0.80
2023-07-22T13:35:56.446Z,1.20
2023-07-22T13:40:59.228Z,1.00
2023-07-22T13:46:01.901Z,1.00
2023-07-22T13:51:05.980Z,1.30
2023-07-22T13:56:08.626Z,1.08
2023-07-22T14:01:11.336Z,1.33
2023-07-22T14:06:15.484Z,1.70
2023-07-22T14:11:18.804Z,1.63
2023-07-22T14:16:23.203Z,1.40
2023-07-22T14:21:28.106Z,1.40
2023-07-22T14:26:30.961Z,1.60
2023-07-22T14:31:33.771Z,1.80
2023-07-22T14:36:37.933Z,1.80
2023-07-22T14:41:43.146Z,1.50
2023-07-22T14:46:45.851Z,1.58
2023-07-22T14:51:49.884Z,1.43
2023-07-22T14:56:52.568Z,1.67
2023-07-22T15:01:55.432Z,1.40
2023-07-22T15:06:59.530Z,1.63
2023-07-22T15:12:02.241Z,1.40
2023-07-22T15:17:06.443Z,1.70
2023-07-22T15:22:10.524Z,1.80
2023-07-22T15:27:13.338Z,1.70
2023-07-22T15:32:16.797Z,2.00
2023-07-22T15:37:20.844Z,2.00
2023-07-22T15:42:23.556Z,1.90
2023-07-22T15:47:26.230Z,1.83
2023-07-22T15:52:30.285Z,1.98
2023-07-22T15:57:33.005Z,2.10
2023-07-22T16:02:35.789Z,2.20
2023-07-22T16:07:40.488Z,2.40
2023-07-22T16:12:43.354Z,2.40
2023-07-22T16:17:46.281Z,2.67
2023-07-22T16:22:50.354Z,2.72
2023-07-22T16:27:52.996Z,2.65
2023-07-22T16:32:55.804Z,2.70
2023-07-22T16:38:01.103Z,3.00
2023-07-22T16:43:03.836Z,2.50
2023-07-22T16:48:06.980Z,2.90
2023-07-22T16:53:11.004Z,2.78
2023-07-22T16:58:13.728Z,2.95
2023-07-22T17:03:17.553Z,2.97
2023-07-22T17:08:21.791Z,2.83
2023-07-22T17:13:24.600Z,2.78
2023-07-22T17:18:27.315Z,2.83
2023-07-22T17:23:31.306Z,3.37
2023-07-22T17:28:34.078Z,3.20
2023-07-22T17:33:36.965Z,3.10
2023-07-22T17:38:42.273Z,3.10
2023-07-22T17:43:45.005Z,2.97
2023-07-22T17:48:47.903Z,3.03
2023-07-22T17:53:52.030Z,2.80
2023-07-22T17:58:54.707Z,2.87
2023-07-22T18:03:57.464Z,3.13
2023-07-22T18:09:01.542Z,3.38
2023-07-22T18:14:04.235Z,3.10
2023-07-22T18:19:07.541Z,3.00
2023-07-22T18:24:11.635Z,3.00
2023-07-22T18:29:14.432Z,2.97
2023-07-22T18:34:22.410Z,3.00
2023-07-22T18:39:26.469Z,3.40
2023-07-22T18:44:29.387Z,3.10
2023-07-22T18:49:32.383Z,3.13
2023-07-22T18:54:36.535Z,3.45
2023-07-22T18:59:39.880Z,3.50
2023-07-22T19:04:42.621Z,2.80
2023-07-22T19:09:46.664Z,3.25
2023-07-22T19:14:49.968Z,3.30
2023-07-22T19:19:52.653Z,3.40
2023-07-22T19:24:56.668Z,3.10
2023-07-22T19:30:00.558Z,3.60
2023-07-22T19:35:03.708Z,3.80
2023-07-22T19:40:09.841Z,3.40
2023-07-22T19:45:12.680Z,4.20
2023-07-22T19:50:15.438Z,4.75
2023-07-22T19:55:19.638Z,4.67
2023-07-22T20:00:22.355Z,4.57
2023-07-22T20:05:25.543Z,4.88
2023-07-22T20:10:30.679Z,4.70
2023-07-22T20:15:35.287Z,5.35
2023-07-22T20:20:37.995Z,5.57
2023-07-22T20:25:42.651Z,6.53
2023-07-22T20:30:45.355Z,6.20
2023-07-22T20:35:48.054Z,6.25
2023-07-22T20:40:52.168Z,5.72
2023-07-22T20:45:54.923Z,6.60
2023-07-22T20:50:57.740Z,6.00
2023-07-22T20:56:02.487Z,5.47
2023-07-22T21:01:05.305Z,6.17
2023-07-22T21:06:08.028Z,6.40
2023-07-22T21:11:12.193Z,6.68
2023-07-22T21:16:15.034Z,7.13
2023-07-22T21:21:17.931Z,6.93
2023-07-22T21:26:21.950Z,6.80
2023-07-22T21:31:24.651Z,7.50
2023-07-22T21:36:28.087Z,6.30
2023-07-22T21:41:32.130Z,7.32
2023-07-22T21:46:34.950Z,6.95
2023-07-22T21:51:40.304Z,7.53
2023-07-22T21:56:44.366Z,6.80
2023-07-22T22:01:47.153Z,6.07
2023-07-22T22:06:49.880Z,6.47
2023-07-22T22:11:53.960Z,5.67
2023-07-22T22:16:56.696Z,7.07
2023-07-22T22:21:59.429Z,5.75
2023-07-22T22:27:03.873Z,7.00
2023-07-22T22:32:07.076Z,6.07
2023-07-22T22:37:09.766Z,6.82
2023-07-22T22:42:13.803Z,7.80
2023-07-22T22:47:16.362Z,7.40
2023-07-22T22:52:19.043Z,7.75
2023-07-22T22:57:23.104Z,7.30
2023-07-22T23:02:25.831Z,7.43
2023-07-22T23:07:31.025Z,7.82
2023-07-22T23:12:38.289Z,7.00
2023-07-22T23:17:41.074Z,7.13
2023-07-22T23:22:43.940Z,7.00
2023-07-22T23:27:48.009Z,7.97
2023-07-22T23:32:50.777Z,8.27
2023-07-22T23:37:53.503Z,7.93
2023-07-22T23:42:57.482Z,7.57
2023-07-22T23:48:00.273Z,7.37
2023-07-22T23:53:03.932Z,7.10
2023-07-22T23:58:08.012Z,6.75
